createdAt,value
2019-02-28T00:01:49.545Z,2.37
2019-02-28T00:04:18.909Z,1.80
2019-02-28T00:06:48.114Z,1.67
2019-02-28T00:09:18.221Z,1.50
2019-02-28T00:11:48.266Z,1.80
2019-02-28T00:14:19.041Z,1.40
2019-02-28T00:16:49.132Z,1.63
2019-02-28T00:19:20.988Z,1.97
2019-02-28T00:21:50.638Z,2.10
2019-02-28T00:24:19.939Z,1.80
2019-02-28T00:26:49.177Z,1.80
2019-02-28T00:29:19.002Z,1.70
2019-02-28T00:31:49.904Z,1.60
2019-02-28T00:34:19.969Z,1.60
2019-02-28T00:36:50.440Z,1.70
2019-02-28T00:39:21.372Z,1.40
2019-02-28T00:41:51.306Z,1.70
2019-02-28T00:44:21.173Z,1.90
2019-02-28T00:46:50.503Z,1.97
2019-02-28T00:49:20.342Z,1.93
2019-02-28T00:51:49.652Z,1.73
2019-02-28T00:54:19.741Z,1.87
2019-02-28T00:56:52.474Z,1.80
2019-02-28T00:59:20.556Z,1.70
2019-02-28T01:01:50.417Z,1.90
2019-02-28T01:04:19.754Z,1.90
2019-02-28T01:06:48.988Z,1.47
2019-02-28T01:09:18.794Z,1.63
2019-02-28T01:11:48.120Z,1.60
2019-02-28T01:14:17.942Z,1.73
2019-02-28T01:16:50.154Z,1.90
2019-02-28T01:19:19.409Z,1.47
2019-02-28T01:21:49.339Z,1.80
2019-02-28T01:24:19.237Z,1.70
2019-02-28T01:26:48.492Z,1.63
2019-02-28T01:29:18.305Z,1.80
2019-02-28T01:31:47.556Z,1.70
2019-02-28T01:34:17.285Z,1.60
2019-02-28T01:36:48.803Z,1.37
2019-02-28T01:39:18.128Z,1.20
2019-02-28T01:41:47.927Z,1.40
2019-02-28T01:44:17.838Z,1.40
2019-02-28T01:46:48.533Z,1.40
2019-02-28T01:49:17.944Z,1.40
2019-02-28T01:51:47.795Z,1.47
2019-02-28T01:54:17.807Z,1.53
2019-02-28T01:56:47.125Z,1.50
2019-02-28T01:59:16.930Z,1.80
2019-02-28T02:01:46.860Z,1.57
2019-02-28T02:04:16.159Z,1.47
2019-02-28T02:06:45.444Z,1.87
2019-02-28T02:09:14.652Z,1.70
2019-02-28T02:11:44.501Z,1.73
2019-02-28T02:14:13.813Z,1.53
2019-02-28T02:16:43.250Z,1.60
2019-02-28T02:19:17.577Z,1.93
2019-02-28T02:21:43.263Z,1.77
2019-02-28T02:24:12.684Z,1.50
2019-02-28T02:26:45.209Z,1.40
2019-02-28T02:29:13.413Z,1.43
2019-02-28T02:31:43.649Z,1.30
2019-02-28T02:34:13.175Z,1.60
2019-02-28T02:36:42.406Z,1.30
2019-02-28T02:39:15.979Z,1.63
2019-02-28T02:41:43.379Z,1.20
2019-02-28T02:44:12.695Z,1.73
2019-02-28T02:46:42.525Z,1.67
2019-02-28T02:49:18.522Z,1.50
2019-02-28T02:51:49.124Z,1.60
2019-02-28T02:54:19.887Z,1.57
2019-02-28T02:56:46.438Z,1.67
2019-02-28T02:59:15.675Z,1.60
2019-02-28T03:01:44.896Z,1.80
2019-02-28T03:04:21.671Z,1.67
2019-02-28T03:06:46.731Z,1.37
2019-02-28T03:09:16.786Z,2.73
2019-02-28T03:11:46.121Z,1.37
2019-02-28T03:14:16.436Z,1.53
2019-02-28T03:16:46.152Z,1.57
2019-02-28T03:19:15.955Z,1.57
2019-02-28T03:21:51.392Z,1.80
2019-02-28T03:24:17.658Z,1.40
2019-02-28T03:26:47.551Z,1.50
2019-02-28T03:29:17.493Z,1.60
2019-02-28T03:31:55.239Z,1.53
2019-02-28T03:34:19.498Z,1.77
2019-02-28T03:36:55.031Z,1.40
2019-02-28T03:39:24.375Z,1.60
2019-02-28T03:41:52.933Z,1.23
2019-02-28T03:44:23.396Z,1.30
2019-02-28T03:46:52.615Z,1.57
2019-02-28T03:49:22.478Z,1.60
2019-02-28T03:51:51.828Z,1.70
2019-02-28T03:54:21.655Z,1.50
2019-02-28T03:56:53.259Z,1.57
2019-02-28T03:59:23.163Z,1.40
2019-02-28T04:01:52.469Z,1.23
2019-02-28T04:04:21.701Z,1.47
2019-02-28T04:06:51.531Z,1.50
2019-02-28T04:09:21.446Z,1.57
2019-02-28T04:11:51.365Z,1.83
2019-02-28T04:14:20.614Z,1.70
2019-02-28T04:16:54.104Z,1.53
2019-02-28T04:19:22.783Z,1.50
2019-02-28T04:21:52.426Z,1.90
2019-02-28T04:24:22.206Z,1.80
2019-02-28T04:26:52.132Z,2.53
2019-02-28T04:29:21.444Z,1.70
2019-02-28T04:31:51.645Z,2.00
2019-02-28T04:34:22.391Z,1.60
2019-02-28T04:36:51.689Z,1.53
2019-02-28T04:39:22.744Z,1.70
2019-02-28T04:41:52.513Z,1.63
2019-02-28T04:44:21.738Z,1.60
2019-02-28T04:46:51.068Z,1.70
2019-02-28T04:49:22.758Z,1.57
2019-02-28T04:51:51.106Z,1.60
2019-02-28T04:54:20.513Z,1.40
2019-02-28T04:56:49.640Z,1.47
2019-02-28T04:59:19.475Z,1.50
2019-02-28T05:01:48.781Z,1.60
2019-02-28T05:04:18.549Z,1.37
2019-02-28T05:06:47.788Z,1.50
2019-02-28T05:09:17.000Z,1.30
2019-02-28T05:11:46.140Z,1.37
2019-02-28T05:14:15.416Z,1.27
2019-02-28T05:16:47.501Z,1.47
2019-02-28T05:19:17.278Z,1.33
2019-02-28T05:21:47.098Z,1.67
2019-02-28T05:24:17.019Z,1.57
2019-02-28T05:26:46.907Z,1.70
2019-02-28T05:29:16.242Z,1.60
2019-02-28T05:31:45.436Z,1.30
2019-02-28T05:34:16.022Z,1.50
2019-02-28T05:36:46.379Z,1.60
2019-02-28T05:39:16.291Z,1.77
2019-02-28T05:41:48.989Z,1.53
2019-02-28T05:44:16.445Z,1.50
2019-02-28T05:46:45.574Z,1.40
2019-02-28T05:49:15.658Z,1.47
2019-02-28T05:51:45.608Z,1.63
2019-02-28T05:54:17.039Z,1.30
2019-02-28T05:56:46.522Z,1.67
2019-02-28T05:59:16.326Z,1.57
2019-02-28T06:01:47.086Z,1.60
2019-02-28T06:04:17.114Z,1.90
2019-02-28T06:06:47.045Z,1.47
2019-02-28T06:09:16.975Z,2.17
2019-02-28T06:11:46.731Z,2.00
2019-02-28T06:14:16.604Z,2.30
2019-02-28T06:16:46.874Z,2.23
2019-02-28T06:19:17.467Z,2.27
2019-02-28T06:21:47.403Z,2.50
2019-02-28T06:24:17.326Z,2.57
2019-02-28T06:26:47.569Z,2.63
2019-02-28T06:29:17.441Z,2.60
2019-02-28T06:31:48.640Z,2.30
2019-02-28T06:34:18.817Z,2.50
2019-02-28T06:36:48.235Z,2.30
2019-02-28T06:39:17.620Z,2.80
2019-02-28T06:41:46.973Z,2.80
2019-02-28T06:44:16.784Z,2.67
2019-02-28T06:46:46.746Z,2.67
2019-02-28T06:49:16.629Z,3.07
2019-02-28T06:51:48.364Z,3.27
2019-02-28T06:54:17.370Z,4.00
2019-02-28T06:56:46.696Z,3.23
2019-02-28T06:59:15.918Z,3.80
2019-02-28T07:01:45.201Z,4.07
2019-02-28T07:04:15.206Z,4.00
2019-02-28T07:06:44.697Z,4.53
2019-02-28T07:09:14.426Z,4.40
2019-02-28T07:11:44.274Z,4.40
2019-02-28T07:14:14.203Z,4.43
2019-02-28T07:16:44.117Z,4.80
2019-02-28T07:19:14.091Z,5.10
2019-02-28T07:21:44.357Z,5.87
2019-02-28T07:24:14.282Z,5.10
2019-02-28T07:26:44.213Z,5.87
2019-02-28T07:29:13.461Z,5.00
2019-02-28T07:31:43.221Z,4.67
2019-02-28T07:34:13.161Z,6.17
2019-02-28T07:36:44.845Z,5.83
2019-02-28T07:39:14.717Z,6.50
2019-02-28T07:41:44.638Z,6.53
2019-02-28T07:44:18.078Z,5.90
2019-02-28T07:46:46.154Z,6.97
2019-02-28T07:49:16.057Z,7.07
2019-02-28T07:51:46.149Z,6.93
2019-02-28T07:54:15.810Z,7.10
2019-02-28T07:56:46.601Z,7.77
2019-02-28T07:59:15.893Z,6.73
2019-02-28T08:01:45.096Z,7.10
2019-02-28T08:04:18.106Z,8.33
2019-02-28T08:06:46.578Z,7.03
2019-02-28T08:09:21.311Z,7.50
2019-02-28T08:11:51.665Z,7.73
2019-02-28T08:14:21.457Z,9.40
2019-02-28T08:16:51.464Z,8.30
2019-02-28T08:19:22.894Z,7.33
2019-02-28T08:21:52.349Z,8.27
2019-02-28T08:24:22.513Z,8.17
2019-02-28T08:26:53.593Z,8.70
2019-02-28T08:29:23.151Z,8.63
2019-02-28T08:31:53.083Z,8.97
2019-02-28T08:34:23.847Z,7.97
2019-02-28T08:36:54.549Z,8.70
2019-02-28T08:39:24.398Z,8.90
2019-02-28T08:41:54.348Z,8.53
2019-02-28T08:44:24.259Z,8.77
2019-02-28T08:46:53.598Z,8.80
2019-02-28T08:49:22.759Z,8.40
2019-02-28T08:51:52.642Z,9.20
2019-02-28T08:54:26.136Z,8.77
2019-02-28T08:56:52.846Z,9.10
2019-02-28T08:59:22.972Z,8.57
2019-02-28T09:01:52.997Z,8.37
2019-02-28T09:04:22.313Z,7.77
2019-02-28T09:06:52.178Z,9.13
2019-02-28T09:09:21.479Z,8.43
2019-02-28T09:11:53.151Z,8.97
2019-02-28T09:14:22.855Z,8.77
2019-02-28T09:16:52.196Z,8.53
2019-02-28T09:19:21.426Z,8.77
2019-02-28T09:21:52.891Z,8.43
2019-02-28T09:24:22.893Z,8.63
2019-02-28T09:26:52.765Z,8.93
2019-02-28T09:29:22.722Z,10.30
2019-02-28T09:31:52.841Z,9.40
2019-02-28T09:34:22.781Z,8.73
2019-02-28T09:36:56.628Z,9.00
2019-02-28T09:39:24.325Z,9.50
2019-02-28T09:41:53.634Z,9.17
2019-02-28T09:44:22.800Z,8.37
2019-02-28T09:46:52.051Z,8.97
2019-02-28T09:49:21.853Z,10.03
2019-02-28T09:51:51.783Z,8.50
2019-02-28T09:54:24.358Z,8.03
2019-02-28T09:56:53.215Z,7.83
2019-02-28T09:59:22.825Z,6.67
2019-02-28T10:02:00.918Z,7.90
2019-02-28T10:04:23.522Z,7.37
2019-02-28T10:06:53.454Z,7.37
2019-02-28T10:09:22.784Z,7.10
2019-02-28T10:11:52.189Z,6.67
2019-02-28T10:14:22.061Z,6.70
2019-02-28T10:16:52.643Z,6.70
2019-02-28T10:19:23.806Z,7.53
2019-02-28T10:21:53.752Z,6.90
2019-02-28T10:24:24.716Z,6.73
2019-02-28T10:26:54.080Z,7.23
2019-02-28T10:29:23.443Z,7.77
2019-02-28T10:31:52.786Z,7.30
2019-02-28T10:34:23.462Z,7.40
2019-02-28T10:36:54.103Z,6.53
2019-02-28T10:39:24.074Z,7.20
2019-02-28T10:41:53.990Z,7.93
2019-02-28T10:44:23.965Z,6.97
2019-02-28T10:46:54.614Z,7.47
2019-02-28T10:49:24.933Z,7.50
2019-02-28T10:51:54.969Z,9.27
2019-02-28T10:54:24.965Z,7.27
2019-02-28T10:56:55.066Z,7.70
2019-02-28T10:59:25.136Z,8.50
2019-02-28T11:01:55.009Z,7.27
2019-02-28T11:04:24.993Z,8.03
2019-02-28T11:06:54.374Z,8.30
2019-02-28T11:09:25.437Z,8.60
2019-02-28T11:11:54.958Z,8.83
2019-02-28T11:14:24.204Z,7.67
2019-02-28T11:16:59.103Z,7.40
2019-02-28T11:19:25.090Z,7.40
2019-02-28T11:21:55.137Z,7.47
2019-02-28T11:24:27.066Z,7.57
2019-02-28T11:26:56.353Z,7.77
2019-02-28T11:29:26.305Z,7.30
2019-02-28T11:31:55.611Z,8.00
2019-02-28T11:34:24.901Z,7.83
2019-02-28T11:36:54.149Z,7.70
2019-02-28T11:39:23.701Z,7.77
2019-02-28T11:41:53.799Z,7.87
2019-02-28T11:44:23.792Z,7.37
2019-02-28T11:46:53.097Z,8.23
2019-02-28T11:49:25.685Z,6.23
2019-02-28T11:51:53.918Z,7.27
2019-02-28T11:54:23.126Z,6.97
2019-02-28T11:56:52.265Z,7.07
2019-02-28T11:59:24.236Z,5.87
2019-02-28T12:01:53.664Z,6.57
2019-02-28T12:04:23.506Z,6.50
2019-02-28T12:06:52.869Z,6.60
2019-02-28T12:09:22.709Z,6.77
2019-02-28T12:11:52.647Z,6.73
2019-02-28T12:14:22.619Z,6.87
2019-02-28T12:16:53.554Z,6.63
2019-02-28T12:19:23.354Z,7.17
2019-02-28T12:21:52.685Z,8.10
2019-02-28T12:24:22.495Z,6.80
2019-02-28T12:26:53.605Z,7.37
2019-02-28T12:29:23.560Z,7.50
2019-02-28T12:31:52.998Z,6.93
2019-02-28T12:34:22.901Z,6.03
2019-02-28T12:36:52.833Z,7.13
2019-02-28T12:39:23.701Z,8.53
2019-02-28T12:41:53.074Z,7.93
2019-02-28T12:44:22.289Z,7.97
2019-02-28T12:46:52.192Z,8.43
2019-02-28T12:49:22.360Z,8.07
2019-02-28T12:51:52.421Z,8.30
2019-02-28T12:54:23.408Z,8.77
2019-02-28T12:56:52.737Z,7.87
2019-02-28T12:59:21.915Z,8.30
2019-02-28T13:01:51.186Z,7.83
2019-02-28T13:04:20.335Z,8.67
2019-02-28T13:06:50.229Z,8.63
2019-02-28T13:09:20.154Z,8.30
2019-02-28T13:11:49.876Z,7.70
2019-02-28T13:14:19.131Z,8.10
2019-02-28T13:16:48.961Z,8.07
2019-02-28T13:19:20.117Z,7.80
2019-02-28T13:21:50.361Z,8.30
2019-02-28T13:24:20.358Z,7.80
2019-02-28T13:26:49.707Z,8.13
2019-02-28T13:29:19.522Z,7.70
2019-02-28T13:31:48.806Z,8.97
2019-02-28T13:34:18.110Z,8.57
2019-02-28T13:36:47.969Z,8.90
2019-02-28T13:39:17.919Z,9.10
2019-02-28T13:41:47.278Z,8.50
2019-02-28T13:44:16.495Z,8.20
2019-02-28T13:46:45.685Z,8.47
2019-02-28T13:49:15.698Z,9.40
2019-02-28T13:51:45.137Z,8.93
2019-02-28T13:54:14.915Z,7.33
2019-02-28T13:56:45.049Z,8.23
2019-02-28T13:59:14.986Z,9.13
2019-02-28T14:01:44.300Z,8.50
2019-02-28T14:04:14.072Z,8.70
2019-02-28T14:06:44.010Z,8.60
2019-02-28T14:09:13.366Z,8.53
2019-02-28T14:11:45.054Z,8.50
2019-02-28T14:14:14.074Z,8.70
2019-02-28T14:16:43.989Z,9.73
2019-02-28T14:19:13.331Z,9.33
2019-02-28T14:21:43.154Z,8.77
2019-02-28T14:24:12.478Z,8.97
2019-02-28T14:26:43.064Z,8.43
2019-02-28T14:29:13.176Z,8.47
2019-02-28T14:31:43.094Z,8.10
2019-02-28T14:34:13.045Z,9.30
2019-02-28T14:36:45.184Z,8.80
2019-02-28T14:39:13.928Z,9.13
2019-02-28T14:41:43.739Z,9.23
2019-02-28T14:44:13.680Z,9.13
2019-02-28T14:46:43.569Z,8.70
2019-02-28T14:49:13.694Z,7.30
2019-02-28T14:51:42.951Z,8.17
2019-02-28T14:54:12.162Z,8.07
2019-02-28T14:56:42.240Z,9.43
2019-02-28T14:59:13.069Z,8.00
2019-02-28T15:01:42.573Z,7.47
2019-02-28T15:04:12.331Z,7.93
2019-02-28T15:06:42.350Z,7.97
2019-02-28T15:09:17.398Z,7.93
2019-02-28T15:11:48.243Z,7.80
2019-02-28T15:14:18.258Z,8.40
2019-02-28T15:16:47.574Z,8.27
2019-02-28T15:19:17.054Z,9.13
2019-02-28T15:21:46.266Z,7.17
2019-02-28T15:24:16.122Z,7.47
2019-02-28T15:26:46.057Z,8.13
2019-02-28T15:29:15.407Z,8.07
2019-02-28T15:31:45.241Z,8.57
2019-02-28T15:34:15.257Z,8.53
2019-02-28T15:36:44.921Z,8.03
2019-02-28T15:39:17.189Z,8.30
2019-02-28T15:41:46.267Z,7.93
2019-02-28T15:44:17.364Z,8.20
2019-02-28T15:46:48.292Z,8.23
2019-02-28T15:49:17.668Z,7.50
2019-02-28T15:51:46.894Z,8.10
2019-02-28T15:54:16.956Z,7.80
2019-02-28T15:56:46.895Z,8.13
2019-02-28T15:59:16.873Z,7.80
2019-02-28T16:01:46.694Z,8.10
2019-02-28T16:04:16.533Z,7.60
2019-02-28T16:06:45.793Z,7.00
2019-02-28T16:09:18.617Z,7.97
2019-02-28T16:11:46.566Z,7.40
2019-02-28T16:14:15.809Z,7.13
2019-02-28T16:16:45.788Z,7.80
2019-02-28T16:19:15.739Z,7.63
2019-02-28T16:21:45.083Z,7.33
2019-02-28T16:24:15.033Z,7.83
2019-02-28T16:26:46.431Z,7.33
2019-02-28T16:29:20.427Z,7.93
2019-02-28T16:31:47.266Z,7.73
2019-02-28T16:34:17.206Z,7.37
2019-02-28T16:36:47.551Z,7.73
2019-02-28T16:39:18.068Z,6.73
2019-02-28T16:41:48.018Z,6.93
2019-02-28T16:44:17.358Z,6.80
2019-02-28T16:46:49.906Z,7.27
2019-02-28T16:49:17.431Z,7.00
2019-02-28T16:51:47.393Z,7.70
2019-02-28T16:54:19.385Z,6.83
2019-02-28T16:56:47.613Z,8.37
2019-02-28T16:59:16.750Z,7.33
2019-02-28T17:01:45.990Z,7.30
2019-02-28T17:04:17.191Z,7.97
2019-02-28T17:06:46.288Z,7.87
2019-02-28T17:09:22.108Z,8.47
2019-02-28T17:11:58.506Z,8.37
2019-02-28T17:14:27.726Z,7.70
2019-02-28T17:17:02.725Z,8.60
2019-02-28T17:19:32.479Z,8.83
2019-02-28T17:22:02.421Z,8.10
2019-02-28T17:24:33.465Z,8.70
2019-02-28T17:27:25.836Z,9.13
2019-02-28T17:30:20.191Z,8.87
2019-02-28T17:32:49.337Z,8.43
2019-02-28T17:35:19.153Z,8.57
2019-02-28T17:37:48.470Z,8.63
2019-02-28T17:40:19.562Z,8.37
2019-02-28T17:42:49.855Z,8.47
2019-02-28T17:45:29.925Z,9.13
2019-02-28T17:48:31.854Z,9.30
2019-02-28T17:51:47.352Z,8.43
2019-02-28T17:54:37.249Z,8.33
2019-02-28T17:58:03.699Z,8.77
2019-02-28T18:01:08.871Z,8.27
2019-02-28T18:04:27.529Z,7.43
2019-02-28T18:07:29.478Z,9.17
2019-02-28T18:10:52.732Z,9.47
2019-02-28T18:13:55.420Z,9.20
2019-02-28T18:16:42.730Z,8.03
2019-02-28T18:19:54.343Z,9.00
2019-02-28T18:22:29.831Z,8.40
2019-02-28T18:25:17.370Z,9.50
2019-02-28T18:27:52.880Z,9.27
2019-02-28T18:30:46.359Z,8.87
2019-02-28T18:33:15.107Z,10.00
2019-02-28T18:35:44.928Z,9.57
2019-02-28T18:38:14.867Z,8.57
2019-02-28T18:40:44.801Z,8.50
2019-02-28T18:43:31.371Z,9.33
2019-02-28T18:46:01.625Z,9.27
2019-02-28T18:48:34.926Z,9.13
2019-02-28T18:51:05.086Z,9.33
2019-02-28T18:53:36.660Z,9.77
2019-02-28T18:56:05.198Z,9.13
2019-02-28T18:58:34.374Z,9.97
2019-02-28T19:01:03.591Z,10.50
2019-02-28T19:03:32.861Z,9.97
2019-02-28T19:06:02.317Z,9.27
2019-02-28T19:08:31.596Z,9.53
2019-02-28T19:11:01.512Z,9.57
2019-02-28T19:13:32.856Z,10.57
2019-02-28T19:16:02.655Z,10.67
2019-02-28T19:18:32.645Z,10.77
2019-02-28T19:21:01.957Z,9.90
2019-02-28T19:23:31.730Z,10.17
2019-02-28T19:26:01.078Z,9.13
2019-02-28T19:28:30.946Z,9.47
2019-02-28T19:31:00.550Z,9.10
2019-02-28T19:33:29.805Z,9.90
2019-02-28T19:35:58.950Z,9.53
2019-02-28T19:38:28.135Z,9.93
2019-02-28T19:40:57.442Z,9.53
2019-02-28T19:43:26.769Z,9.93
2019-02-28T19:45:56.680Z,9.80
2019-02-28T19:48:26.598Z,10.57
2019-02-28T19:50:56.765Z,10.20
2019-02-28T19:53:26.658Z,9.43
2019-02-28T19:55:56.850Z,10.17
2019-02-28T19:58:26.536Z,10.23
2019-02-28T20:00:56.309Z,10.20
2019-02-28T20:03:26.165Z,8.67
2019-02-28T20:06:00.656Z,10.73
2019-02-28T20:08:30.002Z,9.17
2019-02-28T20:10:59.206Z,9.63
2019-02-28T20:13:28.398Z,10.00
2019-02-28T20:15:58.201Z,9.67
2019-02-28T20:18:27.478Z,9.43
2019-02-28T20:20:56.640Z,9.97
2019-02-28T20:23:25.857Z,11.03
2019-02-28T20:25:55.638Z,9.70
2019-02-28T20:28:24.950Z,10.07
2019-02-28T20:30:54.806Z,9.53
2019-02-28T20:33:24.727Z,9.97
2019-02-28T20:35:54.055Z,11.00
2019-02-28T20:38:23.201Z,9.60
2019-02-28T20:40:52.535Z,9.20
2019-02-28T20:43:22.353Z,9.57
2019-02-28T20:45:51.722Z,9.77
2019-02-28T20:48:20.925Z,8.93
2019-02-28T20:50:54.309Z,10.03
2019-02-28T20:53:27.347Z,10.33
2019-02-28T20:55:57.205Z,9.90
2019-02-28T20:58:26.506Z,9.67
2019-02-28T21:00:55.749Z,10.03
2019-02-28T21:03:25.578Z,9.67
2019-02-28T21:05:54.929Z,10.37
2019-02-28T21:08:24.742Z,11.13
2019-02-28T21:10:54.727Z,9.17
2019-02-28T21:13:24.669Z,10.87
2019-02-28T21:15:54.010Z,9.83
2019-02-28T21:18:23.218Z,10.27
2019-02-28T21:20:52.474Z,9.90
2019-02-28T21:23:22.278Z,9.97
2019-02-28T21:25:51.621Z,10.40
2019-02-28T21:28:21.068Z,9.97
2019-02-28T21:30:50.951Z,10.13
2019-02-28T21:33:20.893Z,10.20
2019-02-28T21:35:50.893Z,10.33
2019-02-28T21:38:20.888Z,10.37
2019-02-28T21:40:50.961Z,10.60
2019-02-28T21:43:20.892Z,9.40
2019-02-28T21:45:50.849Z,10.60
2019-02-28T21:48:20.715Z,9.57
2019-02-28T21:50:50.051Z,9.73
2019-02-28T21:53:19.927Z,10.40
2019-02-28T21:55:49.987Z,9.40
2019-02-28T21:58:19.305Z,10.77
2019-02-28T22:00:48.481Z,10.63
2019-02-28T22:03:17.697Z,10.90
2019-02-28T22:05:47.509Z,9.13
2019-02-28T22:08:16.857Z,10.20
2019-02-28T22:10:46.093Z,10.60
2019-02-28T22:13:15.370Z,11.57
2019-02-28T22:15:44.678Z,10.30
2019-02-28T22:18:13.857Z,10.67
2019-02-28T22:20:43.723Z,10.47
2019-02-28T22:23:13.033Z,10.17
2019-02-28T22:25:42.859Z,11.93
2019-02-28T22:28:12.335Z,11.40
2019-02-28T22:31:01.177Z,11.17
2019-02-28T22:34:02.441Z,10.10
2019-02-28T22:36:35.381Z,11.40
2019-02-28T22:39:05.737Z,11.57
2019-02-28T22:41:35.085Z,11.50
2019-02-28T22:44:04.442Z,11.70
2019-02-28T22:46:33.719Z,10.57
2019-02-28T22:49:02.934Z,10.77
2019-02-28T22:51:32.106Z,11.47
2019-02-28T22:54:01.951Z,11.03
2019-02-28T22:56:31.886Z,12.50
2019-02-28T22:59:01.746Z,10.03
2019-02-28T23:01:31.077Z,10.80
2019-02-28T23:04:00.910Z,11.07
2019-02-28T23:06:30.890Z,10.63
2019-02-28T23:09:00.875Z,10.47
2019-02-28T23:11:30.748Z,9.43
2019-02-28T23:14:00.671Z,10.53
2019-02-28T23:16:30.610Z,10.50
2019-02-28T23:18:59.932Z,9.63
2019-02-28T23:21:29.834Z,10.90
2019-02-28T23:23:59.014Z,10.50
2019-02-28T23:26:28.241Z,9.37
2019-02-28T23:29:12.394Z,10.17
2019-02-28T23:32:16.432Z,8.70
2019-02-28T23:34:47.322Z,8.83
2019-02-28T23:37:16.654Z,8.07
2019-02-28T23:39:45.811Z,8.80
2019-02-28T23:42:15.651Z,8.50
2019-02-28T23:44:45.560Z,9.23
2019-02-28T23:47:15.457Z,9.83
2019-02-28T23:49:44.718Z,9.73
2019-02-28T23:52:14.459Z,9.17
2019-02-28T23:54:44.396Z,8.93
2019-02-28T23:57:14.308Z,8.47
2019-02-28T23:59:44.170Z,8.50
